createdAt,value
2018-09-08T00:01:03.330Z,96.46
2018-09-08T00:02:11.976Z,96.46
2018-09-08T00:03:20.613Z,96.66
2018-09-08T00:04:29.265Z,96.08
2018-09-08T00:05:37.904Z,95.98
2018-09-08T00:06:46.541Z,96.56
2018-09-08T00:07:55.181Z,96.17
2018-09-08T00:09:03.818Z,96.08
2018-09-08T00:10:12.470Z,95.98
2018-09-08T00:11:21.107Z,96.08
2018-09-08T00:12:29.753Z,95.98
2018-09-08T00:13:38.402Z,96.27
2018-09-08T00:14:47.306Z,95.7
2018-09-08T00:15:55.943Z,95.61
2018-09-08T00:17:04.592Z,95.79
2018-09-08T00:18:13.231Z,95.12
2018-09-08T00:19:21.885Z,95.61
2018-09-08T00:20:30.796Z,95.89
2018-09-08T00:21:39.434Z,95.61
2018-09-08T00:22:48.080Z,95.7
2018-09-08T00:23:56.721Z,95.22
2018-09-08T00:25:05.362Z,94.89
2018-09-08T00:26:14.577Z,94.74
2018-09-08T00:27:23.176Z,95.51
2018-09-08T00:28:31.818Z,95.27
2018-09-08T00:29:40.462Z,95.27
2018-09-08T00:30:49.103Z,95.75
2018-09-08T00:31:57.740Z,95.65
2018-09-08T00:33:06.651Z,95.65
2018-09-08T00:34:15.295Z,95.36
2018-09-08T00:35:23.939Z,95.36
2018-09-08T00:36:32.580Z,95.65
2018-09-08T00:37:41.228Z,95.36
2018-09-08T00:38:49.869Z,95.03
2018-09-08T00:39:58.798Z,94.7
2018-09-08T00:41:07.415Z,94.89
2018-09-08T00:42:16.062Z,94.84
2018-09-08T00:43:24.702Z,94.7
2018-09-08T00:44:33.617Z,94.22
2018-09-08T00:45:42.572Z,94.41
2018-09-08T00:46:51.162Z,94.41
2018-09-08T00:47:59.804Z,94.6
2018-09-08T00:49:08.450Z,93.93
2018-09-08T00:50:17.095Z,94.6
2018-09-08T00:51:25.730Z,94.7
2018-09-08T00:52:34.374Z,94.41
2018-09-08T00:53:43.016Z,94.51
2018-09-08T00:54:51.663Z,94.79
2018-09-08T00:56:00.305Z,94.22
2018-09-08T00:57:08.951Z,94.56
2018-09-08T00:58:17.591Z,94.51
2018-09-08T00:59:26.236Z,94.41
2018-09-08T01:00:35.138Z,94.51
2018-09-08T01:01:43.774Z,94.31
2018-09-08T01:02:52.414Z,94.51
2018-09-08T01:04:01.053Z,94.41
2018-09-08T01:05:09.701Z,94.41
2018-09-08T01:06:18.352Z,93.93
2018-09-08T01:07:26.989Z,93.36
2018-09-08T01:08:35.629Z,93.93
2018-09-08T01:09:44.274Z,93.65
2018-09-08T01:10:52.916Z,93.65
2018-09-08T01:12:01.824Z,93.84
2018-09-08T01:13:10.459Z,94.12
2018-09-08T01:14:19.107Z,93.93
2018-09-08T01:15:27.752Z,93.74
2018-09-08T01:16:36.408Z,94.03
2018-09-08T01:17:45.046Z,94.12
2018-09-08T01:18:53.965Z,93.46
2018-09-08T01:20:02.606Z,93.84
2018-09-08T01:21:11.252Z,94.31
2018-09-08T01:22:20.160Z,94.22
2018-09-08T01:23:28.793Z,94.7
2018-09-08T01:24:37.438Z,94.65
2018-09-08T01:25:46.337Z,94.74
2018-09-08T01:26:54.988Z,94.36
2018-09-08T01:28:03.627Z,94.56
2018-09-08T01:29:12.532Z,94.84
2018-09-08T01:30:21.170Z,94.74
2018-09-08T01:31:29.820Z,95.03
2018-09-08T01:32:38.454Z,94.84
2018-09-08T01:33:47.628Z,95.03
2018-09-08T01:34:56.549Z,95.7
2018-09-08T01:36:05.457Z,95.79
2018-09-08T01:37:14.370Z,95.61
2018-09-08T01:38:23.008Z,95.41
2018-09-08T01:39:31.691Z,95.98
2018-09-08T01:40:40.553Z,96.27
2018-09-08T01:41:49.204Z,96.56
2018-09-08T01:42:57.841Z,96.46
2018-09-08T01:44:06.485Z,96.37
2018-09-08T01:45:15.117Z,96.27
2018-09-08T01:46:23.770Z,96.37
2018-09-08T01:47:32.406Z,96.94
2018-09-08T01:48:41.054Z,96.46
2018-09-08T01:49:49.686Z,96.75
2018-09-08T01:50:58.340Z,97.03
2018-09-08T01:52:06.980Z,96.94
2018-09-08T01:53:15.626Z,97.42
2018-09-08T01:54:24.260Z,97.75
2018-09-08T01:55:32.902Z,97.56
2018-09-08T01:56:41.557Z,97.27
2018-09-08T01:57:50.195Z,97.85
2018-09-08T01:58:58.839Z,97.75
2018-09-08T02:00:07.472Z,98.42
2018-09-08T02:01:16.149Z,98.51
2018-09-08T02:02:24.758Z,98.61
2018-09-08T02:03:33.668Z,98.13
2018-09-08T02:04:42.300Z,98.13
2018-09-08T02:05:50.947Z,98.32
2018-09-08T02:06:59.596Z,98.7
2018-09-08T02:08:08.503Z,98.61
2018-09-08T02:09:17.135Z,98.32
2018-09-08T02:10:25.779Z,98.61
2018-09-08T02:11:34.419Z,98.32
2018-09-08T02:12:43.347Z,97.94
2018-09-08T02:13:52.249Z,98.32
2018-09-08T02:15:00.889Z,98.32
2018-09-08T02:16:09.529Z,98.51
2018-09-08T02:17:18.170Z,98.61
2018-09-08T02:18:26.823Z,98.32
2018-09-08T02:19:35.984Z,98.32
2018-09-08T02:20:44.622Z,98.99
2018-09-08T02:21:53.537Z,99.08
2018-09-08T02:23:02.173Z,99.46
2018-09-08T02:24:10.824Z,99.18
2018-09-08T02:25:19.729Z,99.66
2018-09-08T02:26:28.375Z,99.75
2018-09-08T02:27:37.009Z,99.85
2018-09-08T02:28:45.653Z,99.85
2018-09-08T02:29:54.295Z,99.99
2018-09-08T02:31:02.970Z,99.99
2018-09-08T02:32:11.609Z,99.99
2018-09-08T02:33:20.244Z,99.99
2018-09-08T02:34:29.147Z,99.99
2018-09-08T02:35:37.787Z,99.99
2018-09-08T02:36:46.706Z,99.99
2018-09-08T02:37:55.347Z,99.99
2018-09-08T02:39:03.994Z,99.99
2018-09-08T02:40:12.633Z,99.99
2018-09-08T02:41:21.285Z,99.99
2018-09-08T02:42:29.918Z,99.99
2018-09-08T02:43:38.564Z,99.99
2018-09-08T02:44:47.198Z,99.99
2018-09-08T02:45:56.112Z,99.99
2018-09-08T02:47:05.016Z,99.99
2018-09-08T02:48:13.666Z,99.99
2018-09-08T02:49:22.298Z,99.99
2018-09-08T02:50:31.197Z,99.99
2018-09-08T02:51:39.844Z,99.99
2018-09-08T02:52:48.485Z,99.99
2018-09-08T02:53:57.132Z,99.99
2018-09-08T02:55:06.025Z,99.99
2018-09-08T02:56:14.937Z,99.99
2018-09-08T02:57:23.574Z,99.99
2018-09-08T02:58:32.496Z,99.99
2018-09-08T02:59:41.131Z,99.99
2018-09-08T03:00:49.779Z,99.99
2018-09-08T03:01:58.416Z,99.99
2018-09-08T03:03:07.066Z,99.99
2018-09-08T03:04:15.966Z,99.99
2018-09-08T03:05:24.886Z,99.99
2018-09-08T03:06:33.513Z,99.99
2018-09-08T03:07:42.172Z,99.99
2018-09-08T03:08:51.072Z,99.99
2018-09-08T03:09:59.708Z,99.99
2018-09-08T03:11:08.616Z,99.99
2018-09-08T03:12:17.254Z,99.99
2018-09-08T03:13:25.907Z,99.99
2018-09-08T03:14:34.554Z,99.99
2018-09-08T03:15:43.203Z,99.99
2018-09-08T03:16:51.830Z,99.99
2018-09-08T03:18:00.477Z,99.99
2018-09-08T03:19:09.119Z,99.99
2018-09-08T03:20:17.761Z,99.99
2018-09-08T03:21:26.401Z,99.99
2018-09-08T03:22:35.051Z,99.99
2018-09-08T03:23:43.687Z,99.99
2018-09-08T03:24:52.333Z,99.99
2018-09-08T03:26:01.234Z,99.99
2018-09-08T03:27:09.877Z,99.99
2018-09-08T03:28:18.578Z,99.99
2018-09-08T03:29:27.484Z,99.99
2018-09-08T03:30:36.130Z,99.99
2018-09-08T03:31:45.047Z,99.99
2018-09-08T03:32:53.689Z,99.99
2018-09-08T03:34:02.595Z,99.99
2018-09-08T03:35:11.242Z,99.99
2018-09-08T03:36:19.875Z,99.99
2018-09-08T03:37:28.781Z,99.99
2018-09-08T03:38:37.424Z,99.99
2018-09-08T03:39:46.332Z,99.99
2018-09-08T03:40:55.245Z,99.99
2018-09-08T03:42:04.150Z,99.99
2018-09-08T03:43:12.790Z,99.99
2018-09-08T03:44:21.439Z,99.99
2018-09-08T03:45:30.342Z,99.99
2018-09-08T03:46:38.982Z,99.99
2018-09-08T03:47:47.622Z,99.99
2018-09-08T03:48:56.265Z,99.99
2018-09-08T03:50:04.910Z,99.99
2018-09-08T03:51:13.816Z,99.99
2018-09-08T03:52:22.461Z,99.99
2018-09-08T03:53:31.097Z,99.99
2018-09-08T03:54:39.743Z,99.99
2018-09-08T03:55:48.384Z,99.99
2018-09-08T03:56:57.027Z,99.99
2018-09-08T03:58:05.662Z,99.99
2018-09-08T03:59:14.363Z,99.99
2018-09-08T04:00:23.135Z,99.99
2018-09-08T04:01:32.367Z,99.99
2018-09-08T04:02:41.007Z,99.99
2018-09-08T04:03:50.215Z,99.99
2018-09-08T04:04:59.250Z,99.99
2018-09-08T04:06:08.006Z,99.99
2018-09-08T04:07:16.914Z,99.99
2018-09-08T04:08:25.815Z,99.99
2018-09-08T04:09:34.737Z,99.99
2018-09-08T04:10:43.385Z,99.99
2018-09-08T04:11:52.292Z,99.99
2018-09-08T04:13:00.931Z,99.99
2018-09-08T04:14:09.836Z,99.99
2018-09-08T04:15:18.475Z,99.99
2018-09-08T04:16:27.124Z,99.99
2018-09-08T04:17:35.752Z,99.99
2018-09-08T04:18:44.398Z,99.99
2018-09-08T04:19:53.037Z,99.99
2018-09-08T04:21:01.691Z,99.99
2018-09-08T04:22:10.332Z,99.99
2018-09-08T04:23:19.237Z,99.99
2018-09-08T04:24:28.140Z,99.99
2018-09-08T04:25:36.780Z,99.99
2018-09-08T04:26:45.428Z,99.99
2018-09-08T04:27:54.066Z,99.99
2018-09-08T04:29:02.712Z,99.99
2018-09-08T04:30:11.345Z,99.99
2018-09-08T04:31:20.264Z,99.99
2018-09-08T04:32:28.897Z,99.99
2018-09-08T04:33:37.547Z,99.99
2018-09-08T04:34:46.182Z,99.99
2018-09-08T04:35:55.098Z,99.99
2018-09-08T04:37:03.733Z,99.99
2018-09-08T04:38:12.377Z,99.99
2018-09-08T04:39:21.008Z,99.99
2018-09-08T04:40:29.918Z,99.99
2018-09-08T04:41:39.102Z,99.99
2018-09-08T04:42:47.745Z,99.99
2018-09-08T04:43:56.388Z,99.99
2018-09-08T04:45:05.020Z,99.99
2018-09-08T04:46:13.664Z,99.99
2018-09-08T04:47:22.300Z,99.99
2018-09-08T04:48:30.960Z,99.99
2018-09-08T04:49:39.856Z,99.99
2018-09-08T04:50:48.503Z,99.99
2018-09-08T04:51:57.138Z,99.99
2018-09-08T04:53:05.796Z,99.99
2018-09-08T04:54:14.427Z,99.99
2018-09-08T04:55:23.071Z,99.99
2018-09-08T04:56:31.709Z,99.99
2018-09-08T04:57:40.366Z,99.99
2018-09-08T04:58:49.004Z,99.99
2018-09-08T04:59:57.904Z,99.99
2018-09-08T05:01:06.804Z,99.99
2018-09-08T05:02:15.723Z,99.99
2018-09-08T05:03:24.672Z,99.99
2018-09-08T05:04:33.567Z,99.99
2018-09-08T05:05:42.212Z,99.99
2018-09-08T05:06:50.844Z,99.99
2018-09-08T05:07:59.493Z,99.99
2018-09-08T05:09:08.211Z,99.99
2018-09-08T05:10:16.781Z,99.99
2018-09-08T05:11:25.412Z,99.99
2018-09-08T05:12:34.060Z,99.99
2018-09-08T05:13:42.699Z,99.99
2018-09-08T05:14:51.346Z,99.99
2018-09-08T05:16:00.246Z,99.99
2018-09-08T05:17:08.923Z,99.99
2018-09-08T05:18:17.537Z,99.99
2018-09-08T05:19:26.177Z,99.99
2018-09-08T05:20:34.825Z,99.99
2018-09-08T05:21:43.461Z,99.99
2018-09-08T05:22:52.102Z,99.99
2018-09-08T05:24:00.740Z,99.99
2018-09-08T05:25:09.654Z,99.99
2018-09-08T05:26:18.303Z,99.99
2018-09-08T05:27:27.208Z,99.99
2018-09-08T05:28:35.876Z,99.99
2018-09-08T05:29:45.187Z,99.99
2018-09-08T05:30:53.825Z,99.99
2018-09-08T05:32:02.729Z,99.99
2018-09-08T05:33:11.371Z,99.99
2018-09-08T05:34:20.278Z,99.99
2018-09-08T05:35:28.921Z,99.99
2018-09-08T05:36:37.567Z,99.99
2018-09-08T05:37:46.200Z,99.99
2018-09-08T05:38:55.110Z,99.99
2018-09-08T05:40:03.758Z,99.99
2018-09-08T05:41:12.400Z,99.99
2018-09-08T05:42:21.042Z,99.99
2018-09-08T05:43:29.681Z,99.99
2018-09-08T05:44:38.326Z,99.99
2018-09-08T05:45:46.969Z,99.99
2018-09-08T05:46:55.614Z,99.99
2018-09-08T05:48:04.250Z,99.99
2018-09-08T05:49:12.904Z,99.99
2018-09-08T05:50:21.539Z,99.99
2018-09-08T05:51:30.185Z,99.99
2018-09-08T05:52:38.819Z,99.99
2018-09-08T05:53:47.464Z,99.99
2018-09-08T05:54:56.106Z,99.99
2018-09-08T05:56:04.750Z,99.99
2018-09-08T05:57:13.396Z,99.99
2018-09-08T05:58:22.048Z,99.99
2018-09-08T05:59:30.959Z,99.99
2018-09-08T06:00:39.599Z,99.99
2018-09-08T06:01:48.246Z,99.99
2018-09-08T06:02:56.884Z,99.99
2018-09-08T06:04:05.528Z,99.99
2018-09-08T06:05:14.172Z,99.99
2018-09-08T06:06:22.814Z,99.99
2018-09-08T06:07:31.451Z,99.99
2018-09-08T06:08:40.099Z,99.99
2018-09-08T06:09:48.740Z,99.99
2018-09-08T06:10:57.387Z,99.99
2018-09-08T06:12:06.027Z,99.99
2018-09-08T06:13:14.936Z,99.99
2018-09-08T06:14:23.838Z,99.99
2018-09-08T06:15:32.483Z,99.99
2018-09-08T06:16:41.384Z,99.99
2018-09-08T06:17:50.024Z,99.99
2018-09-08T06:18:58.665Z,99.99
2018-09-08T06:20:07.573Z,99.99
2018-09-08T06:21:16.477Z,99.99
2018-09-08T06:22:25.120Z,99.99
2018-09-08T06:23:34.026Z,99.99
2018-09-08T06:24:42.673Z,99.99
2018-09-08T06:25:51.311Z,99.99
2018-09-08T06:26:59.967Z,99.99
2018-09-08T06:28:08.867Z,99.99
2018-09-08T06:29:17.514Z,99.99
2018-09-08T06:30:26.151Z,99.99
2018-09-08T06:31:34.793Z,99.99
2018-09-08T06:32:43.436Z,99.99
2018-09-08T06:33:52.554Z,99.99
2018-09-08T06:35:01.145Z,99.99
2018-09-08T06:36:10.334Z,99.99
2018-09-08T06:37:18.982Z,99.99
2018-09-08T06:38:27.617Z,99.99
2018-09-08T06:39:36.260Z,99.99
2018-09-08T06:40:44.904Z,99.99
2018-09-08T06:41:53.547Z,99.99
2018-09-08T06:43:02.183Z,99.99
2018-09-08T06:44:10.833Z,99.99
2018-09-08T06:45:19.537Z,99.99
2018-09-08T06:46:28.381Z,99.99
2018-09-08T06:47:37.043Z,99.99
2018-09-08T06:48:45.928Z,99.99
2018-09-08T06:49:54.574Z,99.99
2018-09-08T06:51:03.494Z,99.99
2018-09-08T06:52:12.136Z,99.99
2018-09-08T06:53:20.778Z,99.99
2018-09-08T06:54:29.420Z,99.99
2018-09-08T06:55:38.064Z,99.99
2018-09-08T06:56:46.714Z,99.99
2018-09-08T06:57:55.397Z,99.99
2018-09-08T06:59:04.859Z,99.99
2018-09-08T07:00:13.499Z,99.99
2018-09-08T07:01:22.146Z,99.99
2018-09-08T07:02:31.046Z,99.99
2018-09-08T07:03:39.700Z,99.99
2018-09-08T07:04:48.339Z,99.99
2018-09-08T07:05:56.985Z,99.99
2018-09-08T07:07:05.624Z,99.99
2018-09-08T07:08:14.525Z,99.99
2018-09-08T07:09:23.164Z,99.99
2018-09-08T07:10:31.804Z,99.99
2018-09-08T07:11:40.451Z,99.99
2018-09-08T07:12:49.354Z,99.99
2018-09-08T07:13:57.997Z,99.99
2018-09-08T07:15:06.909Z,99.99
2018-09-08T07:16:15.547Z,99.99
2018-09-08T07:17:24.447Z,99.99
2018-09-08T07:18:33.095Z,99.99
2018-09-08T07:19:41.728Z,99.99
2018-09-08T07:20:50.385Z,99.99
2018-09-08T07:21:59.022Z,99.8
2018-09-08T07:23:07.668Z,99.76
2018-09-08T07:24:16.301Z,99.28
2018-09-08T07:25:24.949Z,98.52
2018-09-08T07:26:33.596Z,98.13
2018-09-08T07:27:42.499Z,97.85
2018-09-08T07:28:51.146Z,97.8
2018-09-08T07:29:59.782Z,97.23
2018-09-08T07:31:08.466Z,97.8
2018-09-08T07:32:17.079Z,97.13
2018-09-08T07:33:25.735Z,96.47
2018-09-08T07:34:34.631Z,96.75
2018-09-08T07:35:43.278Z,96.84
2018-09-08T07:36:51.916Z,97.13
2018-09-08T07:38:00.837Z,96.66
2018-09-08T07:39:09.470Z,97.33
2018-09-08T07:40:18.116Z,97.04
2018-09-08T07:41:26.756Z,97.23
2018-09-08T07:42:35.407Z,97.75
2018-09-08T07:43:44.050Z,97.8
2018-09-08T07:44:52.692Z,97.61
2018-09-08T07:46:01.653Z,98.04
2018-09-08T07:47:10.236Z,97.75
2018-09-08T07:48:19.153Z,97.85
2018-09-08T07:49:27.792Z,97.9
2018-09-08T07:50:36.440Z,97.61
2018-09-08T07:51:45.074Z,98.38
2018-09-08T07:52:53.726Z,97.61
2018-09-08T07:54:02.438Z,97.61
2018-09-08T07:55:11.455Z,97.13
2018-09-08T07:56:20.089Z,96.56
2018-09-08T07:57:28.740Z,96.75
2018-09-08T07:58:37.382Z,96.84
2018-09-08T07:59:46.027Z,96.56
2018-09-08T08:00:54.662Z,96.18
2018-09-08T08:02:03.308Z,95.12
2018-09-08T08:03:11.956Z,95.84
2018-09-08T08:04:20.602Z,96.03
2018-09-08T08:05:29.246Z,96.66
2018-09-08T08:06:37.902Z,96.03
2018-09-08T08:07:46.545Z,96.51
2018-09-08T08:08:55.174Z,95.56
2018-09-08T08:10:03.829Z,95.84
2018-09-08T08:11:12.721Z,95.65
2018-09-08T08:12:21.369Z,95.65
2018-09-08T08:13:30.014Z,96.03
2018-09-08T08:14:39.013Z,96.03
2018-09-08T08:15:47.828Z,94.98
2018-09-08T08:16:56.470Z,94.5
2018-09-08T08:18:05.112Z,94.31
2018-09-08T08:19:13.772Z,94.7
2018-09-08T08:20:22.405Z,94.5
2018-09-08T08:21:31.045Z,94.12
2018-09-08T08:22:39.688Z,93.64
2018-09-08T08:23:48.330Z,93.74
2018-09-08T08:24:56.983Z,94.41
2018-09-08T08:26:05.622Z,94.17
2018-09-08T08:27:14.271Z,93.79
2018-09-08T08:28:22.907Z,93.69
2018-09-08T08:29:31.827Z,93.4
2018-09-08T08:30:40.467Z,93.98
2018-09-08T08:31:49.120Z,93.12
2018-09-08T08:32:58.283Z,93.02
2018-09-08T08:34:06.937Z,93.12
2018-09-08T08:35:15.844Z,93.12
2018-09-08T08:36:24.491Z,92.73
2018-09-08T08:37:33.124Z,92.73
2018-09-08T08:38:41.772Z,92.83
2018-09-08T08:39:50.418Z,92.83
2018-09-08T08:40:59.065Z,93.12
2018-09-08T08:42:07.712Z,93.16
2018-09-08T08:43:16.372Z,92.58
2018-09-08T08:44:24.995Z,91.92
2018-09-08T08:45:33.635Z,91.53
2018-09-08T08:46:42.287Z,91.15
2018-09-08T08:47:50.920Z,90.86
2018-09-08T08:48:59.576Z,90.48
2018-09-08T08:50:08.478Z,90.77
2018-09-08T08:51:17.133Z,90.62
2018-09-08T08:52:25.787Z,90.96
2018-09-08T08:53:34.417Z,90.43
2018-09-08T08:54:43.054Z,90.14
2018-09-08T08:55:51.729Z,89.95
2018-09-08T08:57:00.359Z,90.14
2018-09-08T08:58:08.994Z,90.05
2018-09-08T08:59:17.641Z,89.57
2018-09-08T09:00:26.282Z,90.33
2018-09-08T09:01:34.939Z,89.76
2018-09-08T09:02:43.838Z,89.09
2018-09-08T09:03:52.486Z,89.18
2018-09-08T09:05:01.123Z,89.57
2018-09-08T09:06:09.780Z,88.7
2018-09-08T09:07:19.254Z,88.99
2018-09-08T09:08:28.387Z,88.9
2018-09-08T09:09:39.168Z,88.08
2018-09-08T09:10:47.821Z,88.08
2018-09-08T09:11:56.462Z,88.08
2018-09-08T09:13:05.229Z,87.7
2018-09-08T09:14:14.018Z,87.98
2018-09-08T09:15:23.093Z,87.98
2018-09-08T09:16:33.824Z,87.41
2018-09-08T09:17:42.469Z,87.12
2018-09-08T09:18:51.565Z,87.41
2018-09-08T09:20:02.422Z,87.7
2018-09-08T09:21:11.049Z,86.64
2018-09-08T09:22:19.693Z,86.93
2018-09-08T09:23:28.347Z,86.83
2018-09-08T09:24:38.220Z,87.21
2018-09-08T09:25:47.387Z,86.97
2018-09-08T09:26:56.043Z,86.83
2018-09-08T09:28:04.693Z,87.02
2018-09-08T09:29:13.334Z,86.58
2018-09-08T09:30:21.983Z,85.72
2018-09-08T09:31:30.626Z,85.63
2018-09-08T09:32:39.274Z,84.95
2018-09-08T09:33:47.917Z,84.95
2018-09-08T09:34:56.560Z,84.48
2018-09-08T09:36:05.744Z,84
2018-09-08T09:37:14.451Z,83.52
2018-09-08T09:38:23.389Z,83.42
2018-09-08T09:39:32.033Z,83.23
2018-09-08T09:40:40.678Z,82.94
2018-09-08T09:41:49.321Z,82.94
2018-09-08T09:42:57.969Z,81.93
2018-09-08T09:44:06.624Z,82.12
2018-09-08T09:45:15.263Z,82.31
2018-09-08T09:46:23.912Z,82.6
2018-09-08T09:47:32.553Z,82.51
2018-09-08T09:48:41.198Z,83.18
2018-09-08T09:49:49.844Z,83.08
2018-09-08T09:50:58.485Z,82.51
2018-09-08T09:52:07.400Z,81.84
2018-09-08T09:53:16.176Z,81.1
2018-09-08T09:54:24.695Z,80.87
2018-09-08T09:55:33.345Z,80.2
2018-09-08T09:56:42.252Z,81.01
2018-09-08T09:57:50.898Z,81.74
2018-09-08T09:58:59.543Z,81.4
2018-09-08T10:00:08.204Z,81.87
2018-09-08T10:01:16.838Z,81.2
2018-09-08T10:02:25.482Z,80.91
2018-09-08T10:03:34.128Z,81.2
2018-09-08T10:04:42.779Z,79.96
2018-09-08T10:05:51.424Z,79.99
2018-09-08T10:07:00.073Z,79.22
2018-09-08T10:08:08.720Z,78.94
2018-09-08T10:09:17.368Z,78.84
2018-09-08T10:10:26.019Z,78.17
2018-09-08T10:11:34.663Z,76.92
2018-09-08T10:12:43.313Z,77.21
2018-09-08T10:13:51.961Z,77.69
2018-09-08T10:15:00.603Z,77.11
2018-09-08T10:16:09.250Z,76.92
2018-09-08T10:17:17.897Z,77.84
2018-09-08T10:18:26.551Z,77.5
2018-09-08T10:19:35.191Z,77.98
2018-09-08T10:20:43.837Z,79.09
2018-09-08T10:21:52.486Z,78.8
2018-09-08T10:23:01.193Z,79.67
2018-09-08T10:24:10.121Z,79.47
2018-09-08T10:25:19.030Z,78.8
2018-09-08T10:26:27.829Z,78.9
2018-09-08T10:27:36.328Z,78.23
2018-09-08T10:28:44.973Z,78.55
2018-09-08T10:29:54.549Z,77.59
2018-09-08T10:31:04.750Z,77.5
2018-09-08T10:32:15.090Z,77.21
2018-09-08T10:33:23.297Z,77.4
2018-09-08T10:34:32.205Z,77.59
2018-09-08T10:35:40.852Z,77.31
2018-09-08T10:36:49.494Z,76.92
2018-09-08T10:37:58.145Z,76.77
2018-09-08T10:39:06.791Z,76.09
2018-09-08T10:40:15.471Z,74.94
2018-09-08T10:41:24.824Z,75.23
2018-09-08T10:42:33.476Z,74.27
2018-09-08T10:43:42.384Z,72.83
2018-09-08T10:44:51.033Z,73.31
2018-09-08T10:45:59.938Z,74.75
2018-09-08T10:47:08.593Z,74.55
2018-09-08T10:48:17.239Z,75.13
2018-09-08T10:49:25.895Z,74.85
2018-09-08T10:50:34.548Z,73.5
2018-09-08T10:51:43.454Z,73.31
2018-09-08T10:52:52.100Z,73.5
2018-09-08T10:54:00.753Z,73.88
2018-09-08T10:55:09.404Z,73.98
2018-09-08T10:56:18.054Z,74.55
2018-09-08T10:57:26.700Z,74.85
2018-09-08T10:58:35.350Z,76
2018-09-08T10:59:44.001Z,75.32
2018-09-08T11:00:52.656Z,75.23
2018-09-08T11:02:01.511Z,75.13
2018-09-08T11:03:09.954Z,74.46
2018-09-08T11:04:18.605Z,74.65
2018-09-08T11:05:27.251Z,75.62
2018-09-08T11:06:35.900Z,76.19
2018-09-08T11:07:44.542Z,75.9
2018-09-08T11:08:53.192Z,76.29
2018-09-08T11:10:01.853Z,76.19
2018-09-08T11:11:10.493Z,77.21
2018-09-08T11:12:19.144Z,76.64
2018-09-08T11:13:27.783Z,75.87
2018-09-08T11:14:36.445Z,76.06
2018-09-08T11:15:45.406Z,75.38
2018-09-08T11:16:54.001Z,75.38
2018-09-08T11:18:02.909Z,75.29
2018-09-08T11:19:11.567Z,75.87
2018-09-08T11:20:20.218Z,75.87
2018-09-08T11:21:28.871Z,76.34
2018-09-08T11:22:37.825Z,75.81
2018-09-08T11:23:46.419Z,74.55
2018-09-08T11:24:55.070Z,74.65
2018-09-08T11:26:03.723Z,73.5
2018-09-08T11:27:12.373Z,73.31
2018-09-08T11:28:21.276Z,72.73
2018-09-08T11:29:29.934Z,71.87
2018-09-08T11:30:38.859Z,72.83
2018-09-08T11:31:48.203Z,73.88
2018-09-08T11:32:56.842Z,73.41
2018-09-08T11:34:05.492Z,74.08
2018-09-08T11:35:14.138Z,73.41
2018-09-08T11:36:22.793Z,73.21
2018-09-08T11:37:31.435Z,74.46
2018-09-08T11:38:40.346Z,74.65
2018-09-08T11:39:48.995Z,73.98
2018-09-08T11:40:57.648Z,73.73
2018-09-08T11:42:06.294Z,72.77
2018-09-08T11:43:14.937Z,73.6
2018-09-08T11:44:23.581Z,74.6
2018-09-08T11:45:32.226Z,74.46
2018-09-08T11:46:40.891Z,74.85
2018-09-08T11:47:49.802Z,75.42
2018-09-08T11:48:58.456Z,75.46
2018-09-08T11:50:07.095Z,74.79
2018-09-08T11:51:16.026Z,73.31
2018-09-08T11:52:24.669Z,74.17
2018-09-08T11:53:33.318Z,72.67
2018-09-08T11:54:42.224Z,71.96
2018-09-08T11:55:50.875Z,72
2018-09-08T11:57:00.079Z,71.52
2018-09-08T11:58:08.702Z,71.14
2018-09-08T11:59:17.341Z,71.91
2018-09-08T12:00:25.991Z,71.36
2018-09-08T12:01:34.643Z,71.26
2018-09-08T12:02:43.298Z,71.36
2018-09-08T12:03:51.950Z,69.44
2018-09-08T12:05:00.850Z,68.38
2018-09-08T12:06:09.503Z,68.67
2018-09-08T12:07:18.413Z,68.22
2018-09-08T12:08:27.324Z,67.99
2018-09-08T12:09:35.966Z,67.51
2018-09-08T12:10:44.676Z,68.03
2018-09-08T12:11:53.262Z,68.09
2018-09-08T12:13:01.917Z,67.9
2018-09-08T12:14:10.561Z,68.67
2018-09-08T12:15:19.211Z,68.48
2018-09-08T12:16:28.120Z,68.38
2018-09-08T12:17:36.771Z,70.01
2018-09-08T12:18:45.423Z,69.82
2018-09-08T12:19:54.072Z,69.82
2018-09-08T12:21:02.717Z,70.01
2018-09-08T12:22:11.393Z,70.01
2018-09-08T12:23:20.017Z,70.68
2018-09-08T12:24:28.926Z,71.26
2018-09-08T12:25:37.573Z,70.78
2018-09-08T12:26:46.220Z,70.46
2018-09-08T12:27:54.874Z,71.52
2018-09-08T12:29:03.523Z,71.23
2018-09-08T12:30:12.172Z,71.23
2018-09-08T12:31:20.816Z,70.94
2018-09-08T12:32:29.828Z,71.81
2018-09-08T12:33:38.831Z,71.14
2018-09-08T12:34:47.745Z,70.65
2018-09-08T12:35:56.650Z,69.92
2018-09-08T12:37:05.370Z,69.63
2018-09-08T12:38:13.950Z,70.21
2018-09-08T12:39:22.601Z,69.73
2018-09-08T12:40:31.251Z,70.3
2018-09-08T12:41:40.419Z,70.88
2018-09-08T12:42:49.067Z,69.82
2018-09-08T12:43:57.719Z,70.5
2018-09-08T12:45:06.436Z,69.82
2018-09-08T12:46:15.021Z,69.44
2018-09-08T12:47:23.669Z,70.4
2018-09-08T12:48:32.316Z,69.92
2018-09-08T12:49:40.976Z,69.92
2018-09-08T12:50:49.619Z,69.53
2018-09-08T12:51:58.538Z,69.53
2018-09-08T12:53:07.181Z,70.11
2018-09-08T12:54:15.834Z,70.75
2018-09-08T12:55:24.488Z,71.91
2018-09-08T12:56:33.172Z,71.23
2018-09-08T12:57:41.819Z,71.61
2018-09-08T12:58:50.933Z,70.27
2018-09-08T12:59:59.845Z,70.5
2018-09-08T13:01:08.495Z,69.92
2018-09-08T13:02:17.144Z,70.4
2018-09-08T13:03:26.050Z,70.5
2018-09-08T13:04:34.704Z,69.92
2018-09-08T13:05:43.612Z,70.3
2018-09-08T13:06:52.264Z,70.3
2018-09-08T13:08:00.904Z,70.4
2018-09-08T13:09:09.560Z,69.82
2018-09-08T13:10:18.206Z,70.4
2018-09-08T13:11:26.857Z,69.82
2018-09-08T13:12:35.497Z,69.24
2018-09-08T13:13:44.146Z,68.76
2018-09-08T13:14:53.063Z,69.53
2018-09-08T13:16:01.708Z,69.73
2018-09-08T13:17:10.359Z,69.92
2018-09-08T13:18:19.002Z,70.3
2018-09-08T13:19:27.653Z,69.53
2018-09-08T13:20:36.298Z,69.73
2018-09-08T13:21:44.957Z,69.53
2018-09-08T13:22:54.116Z,69.24
2018-09-08T13:24:02.797Z,69.92
2018-09-08T13:25:11.414Z,70.78
2018-09-08T13:26:20.073Z,71.08
2018-09-08T13:27:28.711Z,71.46
2018-09-08T13:28:37.625Z,71.08
2018-09-08T13:29:46.278Z,69.24
2018-09-08T13:30:54.935Z,70.21
2018-09-08T13:32:03.583Z,69.82
2018-09-08T13:33:12.503Z,70.01
2018-09-08T13:34:21.149Z,69.73
2018-09-08T13:35:29.797Z,70.3
2018-09-08T13:36:38.978Z,69.92
2018-09-08T13:37:47.624Z,68.38
2018-09-08T13:38:56.273Z,69.34
2018-09-08T13:40:04.912Z,68.13
2018-09-08T13:41:13.571Z,67.42
2018-09-08T13:42:22.213Z,68.13
2018-09-08T13:43:30.866Z,67.45
2018-09-08T13:44:39.772Z,66.58
2018-09-08T13:45:48.433Z,67.45
2018-09-08T13:46:57.211Z,68.03
2018-09-08T13:48:05.729Z,68.7
2018-09-08T13:49:14.368Z,67.45
2018-09-08T13:50:23.021Z,67.65
2018-09-08T13:51:31.679Z,67.55
2018-09-08T13:52:40.358Z,68.41
2018-09-08T13:53:49.598Z,66.78
2018-09-08T13:54:58.236Z,67.45
2018-09-08T13:56:06.889Z,68.41
2018-09-08T13:57:15.533Z,66.68
2018-09-08T13:58:24.191Z,64.47
2018-09-08T13:59:33.096Z,65.14
2018-09-08T14:00:41.749Z,65.05
2018-09-08T14:01:50.407Z,65.63
2018-09-08T14:02:59.043Z,65.14
2018-09-08T14:04:07.760Z,64.31
2018-09-08T14:05:16.348Z,64.31
2018-09-08T14:06:25.260Z,63.82
2018-09-08T14:07:34.167Z,64.02
2018-09-08T14:08:42.818Z,64.12
2018-09-08T14:09:51.471Z,65.37
2018-09-08T14:11:01.170Z,64.79
2018-09-08T14:12:10.083Z,64.4
2018-09-08T14:13:18.723Z,63.82
2018-09-08T14:14:27.377Z,64.79
2018-09-08T14:15:36.020Z,63.44
2018-09-08T14:16:44.680Z,62.38
2018-09-08T14:17:53.599Z,63.31
2018-09-08T14:19:02.522Z,64.21
2018-09-08T14:20:11.163Z,64.18
2018-09-08T14:21:19.819Z,62.54
2018-09-08T14:22:28.460Z,62.45
2018-09-08T14:23:37.110Z,62.83
2018-09-08T14:24:45.757Z,63.02
2018-09-08T14:25:54.686Z,62.83
2018-09-08T14:27:03.334Z,65.05
2018-09-08T14:28:11.979Z,66.39
2018-09-08T14:29:20.624Z,65.63
2018-09-08T14:30:29.542Z,66.2
2018-09-08T14:31:38.199Z,66.78
2018-09-08T14:32:46.844Z,66.01
2018-09-08T14:33:55.499Z,65.59
2018-09-08T14:35:04.141Z,65.43
2018-09-08T14:36:12.799Z,65.2
2018-09-08T14:37:21.443Z,66.46
2018-09-08T14:38:30.369Z,66.74
2018-09-08T14:39:39.012Z,65.33
2018-09-08T14:40:47.667Z,64.76
2018-09-08T14:41:56.312Z,64.73
2018-09-08T14:43:04.962Z,64.28
2018-09-08T14:44:13.600Z,64.28
2018-09-08T14:45:22.252Z,64.43
2018-09-08T14:46:30.909Z,64.05
2018-09-08T14:47:39.674Z,65.11